Time;durP1;ratioP1;P1;durP2;ratioP2;P2;SDS_P1;SDS_P2;PMS_P1;PMS_P2;Temp;Humidity;BMP_temperature;BMP_pressure;BME280_temperature;BME280_humidity;BME280_pressure;Samples;Min_cycle;Max_cycle;Signal;HPM_P1;HPM_P2
2023/02/06 00:00:47;;;;;;;22.77;5.95;;;;;;;4.67;100.00;104187.78;5268131;28;20021;-73
2023/02/06 00:03:19;;;;;;;23.90;5.47;;;;;;;4.58;100.00;104193.03;5263544;28;20020;-70
2023/02/06 00:05:55;;;;;;;25.65;6.18;;;;;;;4.58;100.00;104200.81;5264822;28;20024;-71
2023/02/06 00:08:27;;;;;;;27.45;5.78;;;;;;;4.47;100.00;104205.19;5261194;28;20508;-71
2023/02/06 00:11:01;;;;;;;22.08;5.97;;;;;;;4.53;100.00;104219.03;5264024;28;20021;-70
2023/02/06 00:13:34;;;;;;;18.88;4.90;;;;;;;4.40;100.00;104212.19;5260933;28;20048;-71
2023/02/06 00:16:14;;;;;;;25.33;5.63;;;;;;;4.49;100.00;104206.91;5268589;28;20029;-70
2023/02/06 00:18:46;;;;;;;25.45;5.57;;;;;;;4.35;100.00;104217.38;5262477;28;20328;-70
2023/02/06 00:21:20;;;;;;;25.42;5.40;;;;;;;4.33;100.00;104205.28;5264752;28;20024;-70
2023/02/06 00:23:54;;;;;;;33.22;6.28;;;;;;;4.29;100.00;104200.97;5266557;28;20033;-70
2023/02/06 00:26:25;;;;;;;26.08;5.32;;;;;;;4.27;100.00;104197.50;5263906;28;20037;-70
2023/02/06 00:28:57;;;;;;;22.88;5.90;;;;;;;4.16;100.00;104197.56;5267104;28;20035;-70
2023/02/06 00:31:28;;;;;;;22.33;4.95;;;;;;;4.11;100.00;104192.38;5265752;28;20172;-71
2023/02/06 00:34:00;;;;;;;23.52;5.22;;;;;;;4.12;100.00;104199.28;5261400;28;20033;-71
2023/02/06 00:36:32;;;;;;;23.83;5.45;;;;;;;4.04;100.00;104187.22;5262648;28;20060;-70
2023/02/06 00:39:03;;;;;;;26.50;4.82;;;;;;;3.92;100.00;104182.09;5267763;28;20029;-70
2023/02/06 00:41:35;;;;;;;20.50;4.28;;;;;;;3.86;100.00;104180.34;5264790;28;20393;-70
2023/02/06 00:44:06;;;;;;;24.38;5.65;;;;;;;3.84;100.00;104177.78;5262166;28;20033;-70
2023/02/06 00:46:37;;;;;;;23.15;4.97;;;;;;;3.81;100.00;104177.78;5264689;28;20043;-70
2023/02/06 00:49:09;;;;;;;22.08;4.75;;;;;;;3.71;100.00;104176.06;5260768;28;20029;-70
2023/02/06 00:51:40;;;;;;;22.30;4.85;;;;;;;3.69;100.00;104188.19;5261603;28;20508;-70
2023/02/06 00:54:11;;;;;;;22.23;5.70;;;;;;;3.63;100.00;104183.00;5262928;28;20025;-71
2023/02/06 00:56:43;;;;;;;20.98;4.80;;;;;;;3.57;100.00;104178.72;5267967;28;20115;-70
2023/02/06 00:59:14;;;;;;;25.00;6.20;;;;;;;3.54;100.00;104183.03;5270835;28;20218;-70
2023/02/06 01:01:45;;;;;;;21.30;5.53;;;;;;;3.51;100.00;104196.00;5247688;28;20029;-70
2023/02/06 01:04:17;;;;;;;24.30;5.00;;;;;;;3.53;100.00;104199.47;5265839;28;20025;-70
2023/02/06 01:06:48;;;;;;;19.58;4.68;;;;;;;3.59;100.00;104192.53;5262525;28;20017;-70
2023/02/06 01:09:19;;;;;;;19.75;4.75;;;;;;;3.37;100.00;104191.72;5266478;28;20075;-70
2023/02/06 01:11:51;;;;;;;25.20;5.15;;;;;;;3.40;100.00;104193.41;5261650;28;20185;-70
2023/02/06 01:14:22;;;;;;;29.38;5.97;;;;;;;3.33;100.00;104200.34;5267061;28;20477;-70
2023/02/06 01:16:53;;;;;;;27.05;5.75;;;;;;;3.19;100.00;104190.88;5268456;28;20070;-70
2023/02/06 01:19:25;;;;;;;24.70;5.28;;;;;;;3.21;100.00;104205.53;5261321;28;20048;-70
2023/02/06 01:21:56;;;;;;;24.08;6.43;;;;;;;3.17;100.00;104211.56;5271261;28;20511;-70
2023/02/06 01:24:28;;;;;;;22.20;5.07;;;;;;;3.17;100.00;104217.59;5269506;28;20029;-70
2023/02/06 01:26:59;;;;;;;27.27;5.18;;;;;;;3.16;100.00;104217.63;5265594;28;20032;-70
2023/02/06 01:29:30;;;;;;;20.83;4.75;;;;;;;3.09;100.00;104213.28;5268335;28;20063;-70
2023/02/06 01:32:02;;;;;;;23.17;5.53;;;;;;;3.06;100.00;104210.69;5267667;28;20481;-70
2023/02/06 01:34:33;;;;;;;24.13;5.90;;;;;;;3.05;100.00;104203.81;5267370;28;20029;-70
2023/02/06 01:37:05;;;;;;;19.17;5.47;;;;;;;2.97;100.00;104206.38;5245627;28;20040;-70
2023/02/06 01:39:36;;;;;;;27.10;5.80;;;;;;;2.98;100.00;104208.09;5262056;28;20025;-70
2023/02/06 01:42:10;;;;;;;39.70;7.00;;;;;;;2.99;100.00;104212.41;5266688;28;20020;-70
2023/02/06 01:44:42;;;;;;;28.17;6.68;;;;;;;2.81;100.00;104200.31;5262663;28;20032;-70
2023/02/06 01:47:13;;;;;;;22.73;6.50;;;;;;;2.82;100.00;104207.22;5265152;28;20095;-70
2023/02/06 01:49:49;;;;;;;24.80;4.65;;;;;;;2.89;100.00;104221.91;5264512;28;20111;-70
2023/02/06 01:52:22;;;;;;;18.30;4.45;;;;;;;2.80;100.00;104227.06;5265339;28;20024;-70
2023/02/06 01:55:00;;;;;;;17.83;4.85;;;;;;;2.89;100.00;104221.91;5263500;28;20410;-70
2023/02/06 01:57:33;;;;;;;18.27;4.43;;;;;;;2.73;100.00;104220.16;5266354;28;20108;-70
2023/02/06 02:00:06;;;;;;;;;;;;;;;3.38;100.00;104223.69;5265174;28;20045;-70
2023/02/06 02:02:43;;;;;;;22.10;4.85;;;;;;;2.82;100.00;104225.34;5263901;28;19991;-70
2023/02/06 02:05:17;;;;;;;20.08;4.72;;;;;;;2.66;100.00;104227.03;5266044;28;20055;-70
2023/02/06 02:08:00;;;;;;;21.02;4.80;;;;;;;2.76;100.00;104219.28;5263007;28;21181;-70
2023/02/06 02:10:32;;;;;;;17.33;4.53;;;;;;;2.49;100.00;104207.13;5261239;28;20025;-70
2023/02/06 02:13:03;;;;;;;19.20;4.75;;;;;;;2.56;100.00;104219.25;5267064;28;20094;-70
2023/02/06 02:15:51;;;;;;;17.63;4.40;;;;;;;2.73;100.00;104214.09;5263465;28;20028;-70
2023/02/06 02:18:36;;;;;;;22.50;4.88;;;;;;;2.70;100.00;104206.34;5265443;28;20063;-70
2023/02/06 02:21:35;;;;;;;20.27;4.15;;;;;;;2.85;100.00;104211.56;5268599;28;20027;-70
2023/02/06 02:24:25;;;;;;;21.25;4.70;;;;;;;2.79;100.00;104203.75;5247151;28;20040;-70
2023/02/06 02:27:02;;;;;;;22.30;4.68;;;;;;;2.68;100.00;104198.56;5262711;28;20066;-70
2023/02/06 02:30:06;;;;;;;21.70;5.35;;;;;;;2.89;100.00;104197.75;5266696;28;20028;-70
2023/02/06 02:32:49;;;;;;;17.60;4.53;;;;;;;2.91;100.00;104193.41;5263754;28;20106;-70
2023/02/06 02:35:29;;;;;;;23.02;4.50;;;;;;;2.86;100.00;104190.81;5265455;28;20057;-70
2023/02/06 02:38:04;;;;;;;19.70;5.15;;;;;;;2.77;100.00;104184.78;5264807;28;20033;-70
2023/02/06 02:40:49;;;;;;;26.90;6.35;;;;;;;2.78;100.00;104186.50;5244172;28;20025;-70
2023/02/06 02:43:36;;;;;;;21.42;5.53;;;;;;;2.93;100.00;104179.63;5266866;28;20031;-70
2023/02/06 02:46:33;;;;;;;22.10;5.28;;;;;;;3.05;100.00;104185.66;5257676;28;20020;-70
2023/02/06 02:49:11;;;;;;;26.10;5.93;;;;;;;2.92;100.00;104184.81;5263093;28;20826;-70
2023/02/06 02:51:44;;;;;;;22.55;5.00;;;;;;;2.85;100.00;104183.06;5265354;28;20031;-70
2023/02/06 02:54:15;;;;;;;26.60;5.45;;;;;;;2.88;100.00;104178.75;5263056;28;20041;-70
2023/02/06 02:56:47;;;;;;;22.33;4.72;;;;;;;2.88;100.00;104172.72;5268055;28;20549;-70
2023/02/06 02:59:30;;;;;;;19.40;4.68;;;;;;;3.02;100.00;104167.53;5266684;28;20130;-70
2023/02/06 03:02:04;;;;;;;;;;;;;;;3.49;100.00;104177.88;5262941;28;20098;-70
2023/02/06 03:04:47;;;;;;;21.60;4.93;;;;;;;3.14;100.00;104183.06;5260976;28;19912;-70
2023/02/06 03:07:56;;;;;;;22.35;6.30;;;;;;;3.17;100.00;104173.56;5263201;28;20028;-70
2023/02/06 03:10:33;;;;;;;23.98;5.07;;;;;;;3.00;100.00;104170.13;5266239;28;20025;-70
2023/02/06 03:13:23;;;;;;;21.60;5.38;;;;;;;2.95;100.00;104163.19;5266757;28;20072;-70
2023/02/06 03:16:22;;;;;;;20.92;4.72;;;;;;;3.19;100.00;104155.44;5265335;28;20473;-70
2023/02/06 03:19:03;;;;;;;21.15;4.97;;;;;;;3.07;100.00;104160.59;5261930;28;20123;-70
2023/02/06 03:21:38;;;;;;;25.58;5.28;;;;;;;2.99;100.00;104157.16;5262550;28;20118;-70
2023/02/06 03:24:14;;;;;;;19.10;4.55;;;;;;;3.07;100.00;104164.09;5268187;28;20158;-70
2023/02/06 03:26:49;;;;;;;20.67;5.60;;;;;;;3.07;100.00;104161.50;5261194;28;20033;-70
2023/02/06 03:29:20;;;;;;;20.95;4.47;;;;;;;2.98;100.00;104158.88;5261620;28;20078;-70
2023/02/06 03:31:57;;;;;;;22.90;5.47;;;;;;;3.08;100.00;104160.63;5260827;28;20029;-70
2023/02/06 03:34:37;;;;;;;19.65;5.25;;;;;;;3.15;100.00;104164.94;5262103;28;20103;-70
2023/02/06 03:37:10;;;;;;;17.02;4.25;;;;;;;3.01;100.00;104161.50;5266230;28;20027;-70
2023/02/06 03:39:41;;;;;;;24.30;5.03;;;;;;;3.12;100.00;104154.56;5260932;28;20029;-70
2023/02/06 03:42:16;;;;;;;24.63;5.47;;;;;;;3.07;100.00;104151.13;5262066;28;20426;-70
2023/02/06 03:44:54;;;;;;;20.85;5.78;;;;;;;3.10;100.00;104153.69;5250810;28;20063;-70
2023/02/06 03:47:26;;;;;;;20.10;4.95;;;;;;;3.04;100.00;104156.31;5259650;28;20495;-70
2023/02/06 03:50:00;;;;;;;21.48;5.35;;;;;;;3.04;100.00;104156.31;5263385;28;20029;-70
2023/02/06 03:52:37;;;;;;;23.25;5.57;;;;;;;3.07;100.00;104156.31;5262722;28;20029;-70
2023/02/06 03:55:12;;;;;;;18.05;4.38;;;;;;;2.99;100.00;104158.03;5258965;28;20082;-70
2023/02/06 03:57:50;;;;;;;17.73;5.05;;;;;;;2.99;100.00;104162.34;5262847;28;20036;-70
2023/02/06 04:00:22;;;;;;;21.85;5.10;;;;;;;2.95;100.00;104150.25;5261790;28;20270;-70
2023/02/06 04:02:55;;;;;;;21.80;5.57;;;;;;;2.92;100.00;104146.81;5260618;28;20028;-70
2023/02/06 04:05:27;;;;;;;17.38;4.90;;;;;;;2.89;100.00;104146.81;5259878;28;20064;-70
2023/02/06 04:07:58;;;;;;;19.48;5.03;;;;;;;2.89;100.00;104156.31;5242025;28;20114;-70
2023/02/06 04:10:29;;;;;;;18.25;4.78;;;;;;;2.84;100.00;104152.84;5264941;28;20480;-70
2023/02/06 04:13:00;;;;;;;22.42;5.57;;;;;;;2.82;100.00;104162.34;5262303;28;20327;-70
2023/02/06 04:15:32;;;;;;;18.20;4.38;;;;;;;2.79;100.00;104170.97;5264478;28;20443;-70
2023/02/06 04:18:03;;;;;;;19.38;5.45;;;;;;;2.71;100.00;104164.91;5266669;28;20378;-70
2023/02/06 04:20:39;;;;;;;16.90;4.88;;;;;;;2.67;100.00;104161.44;5263665;28;20032;-70
2023/02/06 04:23:10;;;;;;;18.27;5.35;;;;;;;2.66;100.00;104153.69;5263124;28;20036;-70
2023/02/06 04:25:42;;;;;;;20.02;4.82;;;;;;;2.60;100.00;104153.69;5263182;28;20027;-70
2023/02/06 04:28:13;;;;;;;20.13;5.80;;;;;;;2.58;100.00;104158.88;5263795;28;20495;-70
2023/02/06 04:30:44;;;;;;;20.00;5.05;;;;;;;2.54;100.00;104144.19;5266664;28;20025;-70
2023/02/06 04:33:15;;;;;;;15.43;4.78;;;;;;;2.52;100.00;104157.97;5265000;28;20093;-70
2023/02/06 04:35:47;;;;;;;21.85;4.63;;;;;;;2.51;100.00;104156.25;5265197;28;20025;-70
2023/02/06 04:38:19;;;;;;;17.98;4.10;;;;;;;2.47;100.00;104152.78;5253705;28;20056;-70
2023/02/06 04:40:50;;;;;;;16.05;4.20;;;;;;;2.42;100.00;104146.72;5266448;28;20025;-70
2023/02/06 04:43:21;;;;;;;15.45;4.75;;;;;;;2.43;100.00;104146.75;5265045;28;20025;-70
2023/02/06 04:45:52;;;;;;;19.02;5.47;;;;;;;2.43;100.00;104144.16;5267688;28;20086;-70
2023/02/06 04:48:24;;;;;;;18.67;4.35;;;;;;;2.44;100.00;104142.44;5264110;28;20032;-70
2023/02/06 04:50:56;;;;;;;16.20;4.13;;;;;;;2.39;100.00;104126.91;5265768;28;20032;-70
2023/02/06 04:53:27;;;;;;;23.48;5.90;;;;;;;2.42;100.00;104126.91;5247804;28;20097;-70
2023/02/06 04:56:03;;;;;;;22.52;5.05;;;;;;;2.55;100.00;104139.88;5273492;28;20024;-70
2023/02/06 04:58:36;;;;;;;20.45;5.30;;;;;;;2.37;100.00;104151.03;5265797;28;20033;-70
2023/02/06 05:01:07;;;;;;;18.08;5.05;;;;;;;2.41;100.00;104152.78;5245035;28;20025;-70
2023/02/06 05:03:38;;;;;;;20.85;4.72;;;;;;;2.35;100.00;104143.28;5263386;28;20024;-70
2023/02/06 05:06:10;;;;;;;19.23;4.72;;;;;;;2.37;100.00;104157.06;5265714;28;20043;-70
2023/02/06 05:08:41;;;;;;;20.38;4.70;;;;;;;2.31;100.00;104157.06;5261758;28;20037;-70
2023/02/06 05:11:13;;;;;;;17.55;4.88;;;;;;;2.30;100.00;104165.66;5267043;28;20458;-70
2023/02/06 05:13:44;;;;;;;18.50;4.47;;;;;;;2.29;100.00;104160.50;5267384;28;20249;-69
2023/02/06 05:16:16;;;;;;;16.85;5.25;;;;;;;2.23;100.00;104148.41;5272034;28;20070;-69
2023/02/06 05:18:51;;;;;;;20.77;5.05;;;;;;;2.29;100.00;104152.75;5244874;28;20386;-69
2023/02/06 05:21:24;;;;;;;14.70;4.13;;;;;;;2.22;100.00;104143.22;5263034;28;20052;-69
2023/02/06 05:23:55;;;;;;;24.70;5.45;;;;;;;2.29;100.00;104150.16;5265710;28;20104;-70
2023/02/06 05:26:26;;;;;;;24.15;5.60;;;;;;;2.29;100.00;104147.56;5261255;28;20569;-71
2023/02/06 05:28:57;;;;;;;23.60;6.68;;;;;;;2.32;100.00;104150.16;5267146;28;20029;-70
2023/02/06 05:31:29;;;;;;;19.40;5.22;;;;;;;2.35;100.00;104153.63;5268881;28;20079;-69
2023/02/06 05:34:00;;;;;;;22.23;5.00;;;;;;;2.34;100.00;104164.81;5266419;28;20036;-70
2023/02/06 05:36:31;;;;;;;17.83;4.68;;;;;;;2.37;100.00;104170.00;5262146;28;20025;-70
2023/02/06 05:39:03;;;;;;;15.68;5.03;;;;;;;2.36;100.00;104164.84;5267100;28;20028;-70
2023/02/06 05:41:34;;;;;;;21.20;5.05;;;;;;;2.39;100.00;104164.84;5263513;28;20047;-69
2023/02/06 05:44:06;;;;;;;22.50;5.30;;;;;;;2.40;100.00;104166.56;5267004;28;20036;-70
2023/02/06 05:46:37;;;;;;;20.58;5.43;;;;;;;2.41;100.00;104171.75;5260147;28;20024;-70
2023/02/06 05:49:08;;;;;;;26.73;5.88;;;;;;;2.46;100.00;104174.34;5261776;28;20037;-70
2023/02/06 05:51:40;;;;;;;25.10;5.85;;;;;;;2.48;100.00;104182.97;5261454;28;20036;-70
2023/02/06 05:54:12;;;;;;;29.70;7.78;;;;;;;2.42;100.00;104185.53;5268756;28;20035;-69
2023/02/06 05:56:44;;;;;;;40.30;7.60;;;;;;;2.35;100.00;104183.78;5264103;28;20017;-70
2023/02/06 05:59:15;;;;;;;34.55;6.95;;;;;;;2.35;100.00;104191.56;5261947;28;20024;-70
2023/02/06 06:01:46;;;;;;;31.85;6.18;;;;;;;2.33;100.00;104196.72;5264719;28;20033;-69
2023/02/06 06:04:18;;;;;;;31.20;6.85;;;;;;;2.33;100.00;104198.47;5265168;28;20114;-70
2023/02/06 06:06:50;;;;;;;30.90;7.38;;;;;;;2.33;100.00;104193.28;5259173;28;20111;-69
2023/02/06 06:09:21;;;;;;;28.80;6.72;;;;;;;2.30;100.00;104191.53;5263648;28;20040;-69
2023/02/06 06:11:52;;;;;;;32.83;7.38;;;;;;;2.33;100.00;104195.88;5267129;28;20032;-70
2023/02/06 06:14:24;;;;;;;33.75;8.32;;;;;;;2.28;100.00;104187.25;5269312;28;20032;-69
2023/02/06 06:16:55;;;;;;;60.47;9.52;;;;;;;2.34;100.00;104189.84;5266838;28;20028;-71
2023/02/06 06:19:26;;;;;;;44.63;9.13;;;;;;;2.37;100.00;104187.25;5268933;28;20036;-71
2023/02/06 06:21:58;;;;;;;27.25;7.80;;;;;;;2.32;100.00;104192.44;5259571;28;20056;-71
2023/02/06 06:24:29;;;;;;;47.70;10.32;;;;;;;2.27;100.00;104190.66;5262310;28;20059;-69
2023/02/06 06:27:00;;;;;;;38.67;8.80;;;;;;;2.21;100.00;104188.94;5259638;28;20124;-69
2023/02/06 06:29:31;;;;;;;52.72;7.72;;;;;;;2.18;100.00;104200.13;5264147;28;20024;-70
2023/02/06 06:32:03;;;;;;;33.45;6.93;;;;;;;2.17;100.00;104197.53;5259886;28;20020;-70
2023/02/06 06:34:34;;;;;;;28.70;5.95;;;;;;;2.22;100.00;104206.19;5265003;28;20116;-70
2023/02/06 06:37:06;;;;;;;24.77;5.57;;;;;;;2.20;100.00;104205.31;5264424;28;20036;-70
2023/02/06 06:39:37;;;;;;;20.95;6.05;;;;;;;2.08;100.00;104179.38;5259832;28;20039;-70
2023/02/06 06:42:08;;;;;;;23.92;6.22;;;;;;;2.19;100.00;104194.09;5266951;28;20120;-70
2023/02/06 06:44:40;;;;;;;27.75;6.53;;;;;;;2.15;100.00;104188.91;5269232;28;20489;-70
2023/02/06 06:47:11;;;;;;;18.00;5.78;;;;;;;2.21;100.00;104188.06;5265548;28;20477;-69
2023/02/06 06:49:42;;;;;;;24.35;6.25;;;;;;;2.23;100.00;104194.97;5244396;28;20036;-69
2023/02/06 06:52:13;;;;;;;26.10;5.60;;;;;;;2.25;100.00;104200.16;5260991;28;20389;-69
2023/02/06 06:54:45;;;;;;;12.98;5.03;;;;;;;2.21;100.00;104194.09;5269328;28;20032;-69
2023/02/06 06:57:17;;;;;;;12.18;5.60;;;;;;;2.21;100.00;104190.66;5257459;28;20040;-70
2023/02/06 06:59:48;;;;;;;13.85;5.13;;;;;;;2.18;100.00;104184.59;5267191;28;20440;-70
2023/02/06 07:02:19;;;;;;;16.92;5.20;;;;;;;2.19;100.00;104183.75;5266147;28;20033;-71
2023/02/06 07:04:51;;;;;;;22.20;5.38;;;;;;;2.21;100.00;104168.25;5262946;28;20658;-69
2023/02/06 07:07:22;;;;;;;34.88;5.75;;;;;;;2.16;100.00;104168.22;5259237;28;20138;-69
2023/02/06 07:09:54;;;;;;;12.50;4.53;;;;;;;2.15;100.00;104165.63;5267792;28;20021;-69
2023/02/06 07:12:26;;;;;;;19.33;5.95;;;;;;;2.18;100.00;104169.09;5261458;28;20040;-69
2023/02/06 07:14:57;;;;;;;9.75;5.07;;;;;;;2.17;100.00;104169.94;5260986;28;20106;-69
2023/02/06 07:17:29;;;;;;;13.07;6.65;;;;;;;2.17;100.00;104161.34;5261892;28;20017;-70
2023/02/06 07:20:00;;;;;;;10.93;6.88;;;;;;;2.18;100.00;104153.56;5266023;28;20123;-69
2023/02/06 07:22:31;;;;;;;10.75;7.13;;;;;;;2.14;100.00;104146.66;5262877;28;20073;-70
2023/02/06 07:25:03;;;;;;;10.27;6.25;;;;;;;2.20;100.00;104148.41;5256537;28;20031;-69
2023/02/06 07:27:34;;;;;;;8.45;6.20;;;;;;;2.30;100.00;104146.69;5261052;28;20037;-69
2023/02/06 07:30:06;;;;;;;16.92;6.70;;;;;;;2.29;100.00;104152.75;5258732;28;20021;-69
2023/02/06 07:32:39;;;;;;;12.73;7.55;;;;;;;2.31;100.00;104154.50;5266030;28;20055;-69
2023/02/06 07:35:11;;;;;;;11.27;7.60;;;;;;;2.33;100.00;104154.47;5261181;28;20025;-69
2023/02/06 07:37:42;;;;;;;10.35;7.53;;;;;;;2.34;100.00;104143.25;5261354;28;20056;-69
2023/02/06 07:40:13;;;;;;;15.07;8.98;;;;;;;2.39;100.00;104138.97;5261277;28;20106;-69
2023/02/06 07:42:44;;;;;;;19.45;8.57;;;;;;;2.41;100.00;104135.53;5265982;28;20021;-69
2023/02/06 07:45:16;;;;;;;16.73;8.38;;;;;;;2.47;100.00;104139.84;5262564;28;20123;-69
2023/02/06 07:47:47;;;;;;;21.42;7.70;;;;;;;2.49;100.00;104130.34;5261496;28;20282;-69
2023/02/06 07:50:19;;;;;;;27.40;8.00;;;;;;;2.51;100.00;104131.25;5265582;28;20035;-69
2023/02/06 07:52:50;;;;;;;37.60;11.95;;;;;;;2.50;100.00;104129.53;5264415;28;20038;-69
2023/02/06 07:55:21;;;;;;;24.75;9.25;;;;;;;2.56;100.00;104137.28;5263248;28;20512;-69
2023/02/06 07:57:53;;;;;;;18.42;7.78;;;;;;;2.60;100.00;104141.59;5265840;28;20509;-70
2023/02/06 08:00:25;;;;;;;17.20;8.10;;;;;;;2.63;100.00;104136.44;5262652;28;20024;-69
2023/02/06 08:02:56;;;;;;;20.38;7.72;;;;;;;2.65;100.00;104120.88;5264590;28;20038;-71
2023/02/06 08:05:27;;;;;;;17.08;7.32;;;;;;;2.72;100.00;104121.75;5257362;28;20025;-69
2023/02/06 08:07:59;;;;;;;17.35;7.15;;;;;;;2.77;100.00;104115.75;5266873;28;20024;-70
2023/02/06 08:10:31;;;;;;;13.45;6.13;;;;;;;2.75;100.00;104108.81;5266289;28;20028;-69
2023/02/06 08:13:02;;;;;;;15.77;6.30;;;;;;;2.82;100.00;104110.56;5260458;28;20056;-69
2023/02/06 08:15:34;;;;;;;18.92;6.47;;;;;;;2.82;100.00;104095.03;5261462;28;20494;-69
2023/02/06 08:18:05;;;;;;;21.60;5.97;;;;;;;2.91;100.00;104113.13;5258828;28;20037;-69
2023/02/06 08:20:36;;;;;;;14.13;6.03;;;;;;;2.96;100.00;104107.97;5257804;28;20067;-70
2023/02/06 08:23:07;;;;;;;11.68;6.20;;;;;;;3.05;100.00;104114.00;5264166;28;20066;-70
2023/02/06 08:25:39;;;;;;;12.45;6.05;;;;;;;3.11;100.00;104119.19;5258786;28;20039;-69
2023/02/06 08:28:13;;;;;;;13.20;5.93;;;;;;;3.16;100.00;104111.41;5261342;28;20055;-70
2023/02/06 08:30:44;;;;;;;9.13;5.35;;;;;;;3.23;100.00;104114.84;5263081;28;20013;-70
2023/02/06 08:33:16;;;;;;;13.57;6.15;;;;;;;3.27;100.00;104116.56;5260596;28;20079;-71
2023/02/06 08:35:47;;;;;;;12.82;5.70;;;;;;;3.35;100.00;104114.81;5257614;28;20475;-69
2023/02/06 08:38:19;;;;;;;11.80;5.80;;;;;;;3.41;100.00;104114.81;5260413;28;20047;-69
2023/02/06 08:40:50;;;;;;;11.95;5.80;;;;;;;3.45;100.00;104111.34;5258686;28;20086;-69
2023/02/06 08:43:21;;;;;;;17.48;7.25;;;;;;;3.44;100.00;104106.16;5256888;28;20043;-69
2023/02/06 08:45:58;;;;;;;14.10;7.32;;;;;;;3.56;100.00;104114.78;5258560;28;20112;-70
2023/02/06 08:48:29;;;;;;;15.20;7.93;;;;;;;3.60;100.00;104108.72;5262021;28;20093;-70
2023/02/06 08:51:05;;;;;;;12.23;6.50;;;;;;;3.68;100.00;104120.81;5264657;28;20032;-70
2023/02/06 08:53:36;;;;;;;11.18;6.93;;;;;;;3.71;100.00;104105.22;5260370;28;20036;-71
2023/02/06 08:56:10;;;;;;;18.00;6.80;;;;;;;3.82;100.00;104108.63;5258417;28;20032;-70
2023/02/06 08:58:41;;;;;;;13.32;6.10;;;;;;;3.85;100.00;104098.25;5262956;28;20559;-70
2023/02/06 09:01:15;;;;;;;10.45;5.63;;;;;;;3.93;100.00;104088.69;5260574;28;20108;-69
2023/02/06 09:03:47;;;;;;;11.52;5.65;;;;;;;3.97;100.00;104090.41;5259369;28;20021;-71
2023/02/06 09:06:18;;;;;;;15.38;6.60;;;;;;;4.05;100.00;104092.94;5265154;28;20418;-69
2023/02/06 09:08:51;;;;;;;12.52;6.50;;;;;;;4.16;100.00;104083.38;5250123;28;20098;-70
2023/02/06 09:11:24;;;;;;;15.15;6.45;;;;;;;4.25;100.00;104082.47;5256923;28;20496;-71
2023/02/06 09:13:58;;;;;;;12.50;6.25;;;;;;;4.35;100.00;104063.34;5256196;28;20060;-70
2023/02/06 09:16:33;;;;;;;12.77;6.65;;;;;;;4.37;100.00;104061.63;5268172;28;20047;-71
2023/02/06 09:19:05;;;;;;;13.68;6.38;;;;;;;4.39;100.00;104059.88;5268151;28;20131;-71
2023/02/06 09:21:37;;;;;;;13.38;6.80;;;;;;;4.45;100.00;104061.56;5263020;28;20548;-72
2023/02/06 09:24:09;;;;;;;11.93;7.00;;;;;;;4.54;100.00;104071.88;5266208;28;20128;-70
2023/02/06 09:26:41;;;;;;;9.93;5.88;;;;;;;4.62;100.00;104075.25;5265303;28;20028;-69
2023/02/06 09:29:13;;;;;;;15.18;6.82;;;;;;;4.74;100.00;104079.53;5265511;28;20461;-69
2023/02/06 09:31:44;;;;;;;16.88;7.68;;;;;;;4.80;100.00;104074.25;5267791;28;20024;-70
2023/02/06 09:34:15;;;;;;;12.20;6.93;;;;;;;4.86;100.00;104075.06;5258992;28;20075;-70
2023/02/06 09:36:46;;;;;;;17.63;7.50;;;;;;;4.91;100.00;104082.81;5269137;28;20033;-71
2023/02/06 09:39:18;;;;;;;13.88;7.13;;;;;;;4.98;100.00;104068.91;5262578;28;20468;-70
2023/02/06 09:41:53;;;;;;;13.18;7.20;;;;;;;4.99;100.00;104061.97;5266459;28;20730;-70
2023/02/06 09:44:38;;;;;;;16.05;6.60;;;;;;;5.16;100.00;104067.88;5266381;28;20032;-70
2023/02/06 09:47:18;;;;;;;12.65;6.70;;;;;;;5.13;100.00;104076.53;5268337;28;20381;-70
2023/02/06 09:49:58;;;;;;;11.90;6.70;;;;;;;5.24;100.00;104085.97;5272404;28;20048;-72
2023/02/06 09:52:32;;;;;;;10.82;6.50;;;;;;;5.21;100.00;104089.47;5258511;28;20087;-71
2023/02/06 09:55:36;;;;;;;17.70;7.72;;;;;;;5.36;100.00;104080.66;5267654;28;20086;-72
2023/02/06 09:58:21;;;;;;;11.85;5.88;;;;;;;5.47;100.00;104086.59;5265294;28;20036;-72
2023/02/06 10:01:25;;;;;;;13.13;7.38;;;;;;;5.62;100.00;104088.16;5261294;28;20033;-70
2023/02/06 10:04:19;;;;;;;13.55;6.38;;;;;;;5.56;100.00;104086.47;5263501;28;20111;-72
2023/02/06 10:07:15;;;;;;;14.13;6.10;;;;;;;5.64;100.00;104085.53;5259016;28;20029;-71
2023/02/06 10:09:57;;;;;;;10.70;6.05;;;;;;;5.73;100.00;104095.84;5260801;28;20036;-71
2023/02/06 10:12:40;;;;;;;14.32;6.35;;;;;;;5.79;100.00;104087.94;5262979;28;20123;-71
2023/02/06 10:15:28;;;;;;;13.43;5.75;;;;;;;5.97;100.00;104100.75;5255794;28;20085;-70
2023/02/06 10:18:26;;;;;;;14.02;6.00;;;;;;;6.14;100.00;104108.34;5264301;28;20059;-71
2023/02/06 10:21:03;;;;;;;14.15;5.82;;;;;;;6.06;100.00;104105.84;5260483;28;20390;-70
2023/02/06 10:24:05;;;;;;;16.38;6.53;;;;;;;6.24;100.00;104111.66;5264405;28;20056;-70
2023/02/06 10:26:38;;;;;;;14.52;5.93;;;;;;;6.23;100.00;104109.94;5224543;28;20040;-71
2023/02/06 10:29:17;;;;;;;12.68;5.55;;;;;;;6.36;100.00;104108.88;5260903;28;20424;-70
2023/02/06 10:32:21;;;;;;;15.85;5.65;;;;;;;6.62;100.00;104108.47;5248983;28;20078;-70
2023/02/06 10:35:01;;;;;;;16.70;6.32;;;;;;;6.56;100.00;104106.84;5265073;28;20033;-70
2023/02/06 10:37:53;;;;;;;13.52;6.53;;;;;;;6.71;100.00;104102.28;5262394;28;20032;-70
2023/02/06 10:40:34;;;;;;;14.57;6.43;;;;;;;6.58;100.00;104099.84;5266678;28;20099;-69
2023/02/06 10:43:18;;;;;;;17.67;5.93;;;;;;;6.70;100.00;104111.81;5263462;28;20648;-70
2023/02/06 10:45:55;;;;;;;15.70;5.97;;;;;;;6.62;100.00;104100.66;5264796;28;20047;-70
2023/02/06 10:48:38;;;;;;;17.63;6.55;;;;;;;6.82;100.00;104095.16;5268175;28;20028;-70
2023/02/06 10:51:36;;;;;;;19.67;5.93;;;;;;;6.99;100.00;104102.66;5266745;28;20037;-70
2023/02/06 10:54:44;;;;;;;24.88;6.18;;;;;;;7.04;100.00;104093.00;5260127;28;20547;-70
2023/02/06 10:57:20;;;;;;;21.17;6.63;;;;;;;6.97;100.00;104099.19;5258841;28;20159;-71
2023/02/06 10:59:57;;;;;;;15.38;6.30;;;;;;;7.03;100.00;104105.19;5260276;28;20032;-71
2023/02/06 11:02:49;;;;;;;18.33;5.50;;;;;;;7.06;100.00;104097.31;5261749;28;20038;-70
2023/02/06 11:05:22;;;;;;;21.40;6.57;;;;;;;7.12;100.00;104091.09;5261580;28;20478;-71
2023/02/06 11:07:58;;;;;;;18.52;6.47;;;;;;;7.26;100.00;104083.03;5266480;28;20486;-70
2023/02/06 11:10:31;;;;;;;15.68;5.95;;;;;;;7.16;100.00;104069.34;5264658;28;20060;-71
2023/02/06 11:13:12;;;;;;;20.20;6.30;;;;;;;7.42;100.00;104070.56;5264684;28;20044;-70
2023/02/06 11:15:57;;;;;;;23.38;6.30;;;;;;;7.59;100.00;104078.91;5261035;28;20031;-72
2023/02/06 11:18:35;;;;;;;23.80;7.20;;;;;;;7.53;100.00;104064.22;5259244;28;20036;-73
2023/02/06 11:21:09;;;;;;;23.58;5.93;;;;;;;7.66;100.00;104062.25;5259156;28;20033;-70
2023/02/06 11:23:41;;;;;;;20.08;6.07;;;;;;;7.76;100.00;104063.75;5257503;28;20081;-70
2023/02/06 11:26:16;;;;;;;20.98;5.35;;;;;;;7.89;100.00;104060.91;5255183;28;20074;-70
2023/02/06 11:28:51;;;;;;;13.43;4.15;;;;;;;8.08;100.00;104063.97;5263131;28;20028;-70
2023/02/06 11:31:44;;;;;;;20.25;4.93;;;;;;;8.43;100.00;104058.78;5263136;28;20554;-70
2023/02/06 11:34:30;;;;;;;25.13;4.25;;;;;;;8.63;100.00;104062.66;5262023;28;20496;-70
2023/02/06 11:37:25;;;;;;;18.63;4.88;;;;;;;8.55;100.00;104060.22;5259874;28;20406;-70
2023/02/06 11:40:13;;;;;;;18.17;4.70;;;;;;;8.65;100.00;104056.50;5266037;28;20040;-70
2023/02/06 11:43:06;;;;;;;20.33;5.03;;;;;;;8.42;100.00;104059.69;5265764;28;20440;-70
2023/02/06 11:45:39;;;;;;;22.75;4.40;;;;;;;8.41;100.00;104065.81;5258620;28;20092;-72
2023/02/06 11:48:36;;;;;;;15.60;4.22;;;;;;;8.61;100.00;104060.09;5258307;28;20029;-70
2023/02/06 11:51:08;;;;;;;16.98;3.92;;;;;;;8.37;100.00;104058.03;5257719;28;20075;-70
2023/02/06 11:53:57;;;;;;;15.10;3.58;;;;;;;8.52;100.00;104055.06;5260049;28;20056;-72